Time;durP1;ratioP1;P1;durP2;ratioP2;P2;SDS_P1;SDS_P2;PMS_P1;PMS_P2;Temp;Humidity;BMP_temperature;BMP_pressure;BME280_temperature;BME280_humidity;BME280_pressure;Samples;Min_cycle;Max_cycle;Signal;HPM_P1;HPM_P2
2023/01/01 00:01:45;;;;;;;26.48;12.20;;;13.50;81.40;;;;;;5037512;28;20173;-50
2023/01/01 00:04:14;;;;;;;18.65;11.70;;;13.60;81.50;;;;;;5045714;28;20029;-47
2023/01/01 00:06:42;;;;;;;19.70;12.00;;;13.50;81.50;;;;;;5024094;28;20021;-48
2023/01/01 00:11:55;;;;;;;19.33;12.35;;;13.50;81.60;;;;;;5053336;28;20123;-49
2023/01/01 00:14:22;;;;;;;26.20;13.13;;;13.50;81.60;;;;;;5053331;28;20086;-53
2023/01/01 00:16:49;;;;;;;20.73;11.10;;;13.50;81.60;;;;;;5052311;28;20025;-48
2023/01/01 00:19:18;;;;;;;20.88;12.30;;;13.50;81.60;;;;;;5027062;28;20030;-48
2023/01/01 00:21:47;;;;;;;21.83;11.85;;;13.50;81.30;;;;;;5013328;28;20065;-51
2023/01/01 00:24:14;;;;;;;22.90;13.30;;;13.50;81.10;;;;;;5013330;28;20448;-52
2023/01/01 00:26:41;;;;;;;23.02;13.65;;;13.60;81.00;;;;;;5034804;28;20079;-48
2023/01/01 00:29:08;;;;;;;24.85;14.02;;;13.50;80.90;;;;;;5036989;28;20731;-48
2023/01/01 00:31:37;;;;;;;22.83;12.93;;;13.50;81.00;;;;;;5019376;28;20030;-47
2023/01/01 00:34:03;;;;;;;25.40;13.27;;;13.60;80.50;;;;;;5027597;28;20498;-48
2023/01/01 00:36:30;;;;;;;24.23;13.30;;;13.60;80.70;;;;;;5046422;28;20032;-50
2023/01/01 00:38:57;;;;;;;20.65;11.10;;;13.60;81.00;;;;;;5049105;28;20442;-48
2023/01/01 00:41:24;;;;;;;26.40;12.80;;;13.50;81.10;;;;;;5032919;28;20033;-48
2023/01/01 00:43:53;;;;;;;20.13;11.38;;;13.60;81.10;;;;;;5027076;28;20038;-49
2023/01/01 00:46:19;;;;;;;18.95;10.80;;;13.60;81.00;;;;;;5029212;28;20021;-49
2023/01/01 00:48:45;;;;;;;21.85;12.35;;;13.60;80.90;;;;;;5032478;28;20055;-50
2023/01/01 00:51:15;;;;;;;20.80;11.85;;;13.70;80.70;;;;;;5032242;28;20099;-49
2023/01/01 00:53:42;;;;;;;24.92;11.25;;;13.70;81.10;;;;;;5029298;28;20037;-49
2023/01/01 00:56:08;;;;;;;18.02;9.18;;;13.70;81.20;;;;;;5032717;28;20061;-50
2023/01/01 00:58:35;;;;;;;19.70;10.38;;;13.70;81.60;;;;;;5044563;28;20037;-47
2023/01/01 01:01:07;;;;;;;25.60;10.77;;;13.70;81.60;;;;;;5052712;28;20028;-49
2023/01/01 01:03:36;;;;;;;20.88;10.05;;;13.70;81.40;;;;;;5017937;28;20109;-49
2023/01/01 01:06:04;;;;;;;18.87;10.43;;;13.70;81.80;;;;;;5014395;28;20050;-47
2023/01/01 01:08:33;;;;;;;18.65;9.75;;;13.60;82.10;;;;;;5032816;28;20378;-46
2023/01/01 01:11:11;;;;;;;19.38;11.52;;;13.60;83.20;;;;;;5031484;28;20390;-45
2023/01/01 01:13:39;;;;;;;19.63;13.35;;;13.40;84.20;;;;;;5031182;28;20035;-45
2023/01/01 01:16:14;;;;;;;19.17;11.40;;;13.40;85.00;;;;;;5030244;28;20497;-46
2023/01/01 01:18:42;;;;;;;19.20;11.85;;;13.30;85.70;;;;;;5031021;28;20041;-44
2023/01/01 01:21:09;;;;;;;19.48;12.63;;;13.10;86.30;;;;;;5019585;28;20495;-44
2023/01/01 01:23:36;;;;;;;20.23;12.98;;;13.10;86.40;;;;;;5029265;28;20098;-45
2023/01/01 01:26:24;;;;;;;20.55;12.15;;;13.00;86.50;;;;;;5056473;28;20035;-44
2023/01/01 01:28:52;;;;;;;24.00;13.70;;;13.00;86.70;;;;;;5047965;28;20044;-48
2023/01/01 01:31:22;;;;;;;18.80;13.38;;;12.90;86.60;;;;;;5046711;28;20048;-44
2023/01/01 01:33:50;;;;;;;23.92;14.25;;;12.90;86.30;;;;;;5038444;28;20124;-45
2023/01/01 01:36:19;;;;;;;23.25;14.00;;;13.00;86.30;;;;;;5036112;28;20025;-44
2023/01/01 01:38:46;;;;;;;21.98;14.50;;;13.00;86.20;;;;;;5035519;28;20037;-47
2023/01/01 01:41:19;;;;;;;25.58;15.70;;;12.90;86.40;;;;;;5037503;28;20029;-47
2023/01/01 01:43:58;;;;;;;26.77;15.25;;;12.90;86.40;;;;;;5040041;28;20035;-45
2023/01/01 01:46:40;;;;;;;22.00;17.85;;;12.90;85.90;;;;;;5033388;28;20036;-45
2023/01/01 01:49:19;;;;;;;29.98;17.77;;;12.90;85.90;;;;;;5024937;28;20464;-46
2023/01/01 01:51:46;;;;;;;33.50;18.45;;;12.90;85.60;;;;;;5016242;28;20057;-44
2023/01/01 01:54:19;;;;;;;27.42;18.10;;;13.00;85.50;;;;;;5036542;28;20422;-46
2023/01/01 01:57:00;;;;;;;25.02;17.92;;;13.10;85.20;;;;;;5034951;28;20037;-45
2023/01/01 01:59:32;;;;;;;24.00;16.92;;;13.10;85.20;;;;;;5015903;28;20112;-47
2023/01/01 02:02:00;;;;;;;23.85;16.70;;;13.10;85.20;;;;;;5021745;28;20056;-46
2023/01/01 02:04:28;;;;;;;24.08;17.45;;;13.20;84.80;;;;;;5032422;28;20056;-48
2023/01/01 02:06:55;;;;;;;23.30;17.27;;;13.20;84.90;;;;;;5035841;28;20031;-48
2023/01/01 02:09:22;;;;;;;22.40;16.77;;;13.20;84.50;;;;;;5035658;28;20096;-48
2023/01/01 02:11:52;;;;;;;29.48;18.70;;;13.20;84.60;;;;;;5031227;28;20026;-47
2023/01/01 02:14:18;;;;;;;28.00;17.42;;;13.20;84.70;;;;;;5016142;28;20108;-46
2023/01/01 02:17:08;;;;;;;30.50;18.33;;;13.20;84.70;;;;;;5016409;28;20034;-48
2023/01/01 02:20:11;;;;;;;26.23;19.08;;;13.20;84.70;;;;;;5030790;28;20041;-46
2023/01/01 02:23:15;;;;;;;21.95;16.95;;;13.10;84.80;;;;;;5035457;28;20029;-48
2023/01/01 02:26:37;;;;;;;23.77;18.33;;;13.20;84.60;;;;;;5018067;28;20029;-48
2023/01/01 02:29:39;;;;;;;31.10;18.25;;;13.20;84.30;;;;;;5029414;28;20037;-48
2023/01/01 02:32:21;;;;;;;25.27;18.13;;;13.20;84.40;;;;;;5032877;28;20462;-48
2023/01/01 02:34:56;;;;;;;22.98;17.45;;;13.20;84.20;;;;;;5032148;28;20121;-48
2023/01/01 02:37:27;;;;;;;27.38;18.77;;;13.20;84.40;;;;;;5030596;28;20033;-49
2023/01/01 02:39:57;;;;;;;29.90;17.52;;;13.20;84.50;;;;;;5055096;28;20032;-49
2023/01/01 02:42:26;;;;;;;24.40;18.45;;;13.20;85.00;;;;;;5043578;28;20120;-47
2023/01/01 02:44:56;;;;;;;24.85;18.45;;;13.10;85.60;;;;;;5026428;28;20503;-46
2023/01/01 02:47:23;;;;;;;26.48;19.98;;;13.00;86.20;;;;;;5034962;28;20030;-47
2023/01/01 02:50:22;;;;;;;27.48;21.20;;;13.00;86.80;;;;;;5028393;28;20033;-44
2023/01/01 02:53:06;;;;;;;27.27;22.90;;;13.00;86.80;;;;;;5033924;28;20059;-45
2023/01/01 02:56:06;;;;;;;26.80;21.33;;;12.90;87.40;;;;;;5032980;28;20045;-46
2023/01/01 03:02:07;;;;;;;28.42;21.35;;;12.80;88.20;;;;;;5023763;28;20037;-51
2023/01/01 03:05:14;;;;;;;30.38;22.17;;;12.70;88.80;;;;;;5026806;28;20046;-47
2023/01/01 03:07:52;;;;;;;31.15;22.67;;;12.70;89.30;;;;;;5038186;28;20063;-51
2023/01/01 03:10:47;;;;;;;30.63;22.77;;;12.60;89.50;;;;;;5054123;28;20029;-48
2023/01/01 03:13:31;;;;;;;31.13;23.45;;;12.50;89.80;;;;;;5041735;28;20077;-46
2023/01/01 03:16:03;;;;;;;30.25;22.52;;;12.50;90.00;;;;;;5045919;28;20033;-48
2023/01/01 03:18:41;;;;;;;32.55;22.67;;;12.40;90.20;;;;;;5044655;28;20025;-49
2023/01/01 03:21:09;;;;;;;26.92;20.10;;;12.40;90.10;;;;;;5032360;28;20024;-47
2023/01/01 03:23:41;;;;;;;33.22;22.20;;;12.40;90.00;;;;;;5034118;28;20029;-47
2023/01/01 03:26:11;;;;;;;31.17;21.23;;;12.40;89.60;;;;;;5032640;28;20029;-47
2023/01/01 03:28:46;;;;;;;;;;;12.40;89.50;;;;;;5033351;28;20036;-47
2023/01/01 03:31:18;;;;;;;30.48;20.15;;;12.40;89.40;;;;;;5034355;28;20289;-47
2023/01/01 03:33:55;;;;;;;27.83;20.25;;;12.50;89.20;;;;;;5031808;28;20056;-45
2023/01/01 03:36:26;;;;;;;28.83;20.73;;;12.50;89.00;;;;;;5033391;28;20359;-46
2023/01/01 03:39:01;;;;;;;23.38;18.05;;;12.50;88.90;;;;;;5033048;28;20037;-44
2023/01/01 03:42:04;;;;;;;31.52;20.15;;;12.50;89.10;;;;;;5033844;28;20120;-49
2023/01/01 03:44:53;;;;;;;26.40;17.75;;;12.50;88.90;;;;;;5033955;28;20044;-45
2023/01/01 03:47:19;;;;;;;25.42;17.70;;;12.60;88.50;;;;;;5020991;28;20546;-47
2023/01/01 03:49:48;;;;;;;32.50;19.23;;;12.60;88.50;;;;;;5017630;28;20188;-48
2023/01/01 03:53:06;;;;;;;29.17;19.95;;;12.50;88.60;;;;;;5031471;28;20091;-49
2023/01/01 03:56:07;;;;;;;26.35;18.25;;;12.50;89.00;;;;;;5042919;28;20045;-54
2023/01/01 03:58:48;;;;;;;35.50;19.73;;;12.50;89.40;;;;;;5013901;28;20663;-50
2023/01/01 04:01:27;;;;;;;27.00;17.40;;;12.40;89.60;;;;;;5020290;28;20179;-53
2023/01/01 04:03:56;;;;;;;23.13;17.67;;;12.40;89.90;;;;;;5031410;28;20447;-58
2023/01/01 04:06:23;;;;;;;27.50;18.88;;;12.40;90.50;;;;;;5021459;28;20060;-59
2023/01/01 04:08:55;;;;;;;29.35;19.38;;;12.30;91.00;;;;;;5033775;28;20030;-58
2023/01/01 04:14:28;;;;;;;25.75;17.92;;;12.10;91.50;;;;;;5032720;28;20561;-52
2023/01/01 04:16:56;;;;;;;30.40;20.05;;;12.10;91.60;;;;;;5030307;28;20044;-48
2023/01/01 04:19:24;;;;;;;29.48;18.73;;;12.10;91.50;;;;;;5027958;28;20025;-51
2023/01/01 04:21:51;;;;;;;25.38;18.08;;;12.10;91.30;;;;;;5012545;28;20026;-50
2023/01/01 04:24:20;;;;;;;26.70;16.75;;;12.10;91.00;;;;;;5016200;28;20026;-52
2023/01/01 04:26:46;;;;;;;29.10;18.13;;;12.20;90.70;;;;;;5052912;28;20116;-50
2023/01/01 04:29:13;;;;;;;26.27;16.67;;;12.20;90.50;;;;;;5047912;28;20124;-49
2023/01/01 04:31:43;;;;;;;24.38;16.38;;;12.20;90.10;;;;;;5016911;28;20022;-47
2023/01/01 04:34:10;;;;;;;24.83;14.63;;;12.20;90.20;;;;;;5018231;28;20328;-50
2023/01/01 04:36:44;;;;;;;25.85;14.40;;;12.30;89.80;;;;;;5013303;28;20041;-49
2023/01/01 04:39:10;;;;;;;19.00;14.07;;;12.30;89.80;;;;;;5052532;28;20109;-46
2023/01/01 04:41:37;;;;;;;25.00;12.32;;;12.30;89.70;;;;;;5050234;28;20029;-48
2023/01/01 04:44:03;;;;;;;18.77;11.73;;;12.30;89.90;;;;;;5044696;28;20030;-51
2023/01/01 04:46:31;;;;;;;15.52;8.93;;;12.30;89.70;;;;;;5046629;28;20048;-46
2023/01/01 04:48:58;;;;;;;13.48;8.57;;;12.30;89.60;;;;;;5048502;28;20029;-49
2023/01/01 04:51:25;;;;;;;9.25;6.15;;;12.20;89.10;;;;;;5031939;28;20057;-49
2023/01/01 04:53:51;;;;;;;14.25;6.68;;;12.30;89.00;;;;;;5049213;28;20033;-49
2023/01/01 04:56:21;;;;;;;14.40;8.55;;;12.20;89.40;;;;;;5052463;28;20083;-46
2023/01/01 04:58:48;;;;;;;13.98;8.48;;;12.20;90.10;;;;;;5044979;28;20033;-47
2023/01/01 05:01:23;;;;;;;11.38;8.23;;;12.10;90.50;;;;;;5043935;28;20037;-50
2023/01/01 05:03:51;;;;;;;12.52;7.97;;;12.10;90.80;;;;;;5051830;28;20100;-47
2023/01/01 05:06:17;;;;;;;12.77;8.00;;;12.10;91.00;;;;;;5039248;28;20040;-47
2023/01/01 05:08:47;;;;;;;13.05;7.40;;;12.00;91.20;;;;;;5052573;28;20049;-50
2023/01/01 05:11:31;;;;;;;9.15;5.95;;;12.00;91.10;;;;;;5052618;28;20021;-50
2023/01/01 05:13:59;;;;;;;12.55;6.55;;;12.10;91.10;;;;;;5049236;28;20040;-45
2023/01/01 05:16:29;;;;;;;15.43;9.43;;;12.00;91.00;;;;;;5048537;28;20033;-45
2023/01/01 05:18:56;;;;;;;;;;;12.10;91.00;;;;;;5031985;28;20489;-46
2023/01/01 05:21:30;;;;;;;14.60;6.53;;;12.00;91.00;;;;;;5030039;28;19935;-51
2023/01/01 05:24:00;;;;;;;12.68;6.25;;;12.10;91.00;;;;;;5026684;28;20720;-48
2023/01/01 05:26:30;;;;;;;11.27;5.90;;;12.10;90.90;;;;;;5012591;28;20018;-48
2023/01/01 05:28:58;;;;;;;12.55;5.07;;;12.10;90.70;;;;;;5021352;28;20447;-44
2023/01/01 05:31:32;;;;;;;10.13;4.80;;;12.10;90.70;;;;;;5027182;28;20056;-50
2023/01/01 05:33:59;;;;;;;9.90;5.40;;;12.10;90.40;;;;;;5011700;28;20026;-49
2023/01/01 05:36:28;;;;;;;9.88;5.20;;;12.10;90.20;;;;;;5031000;28;20029;-45
2023/01/01 05:38:55;;;;;;;11.53;4.40;;;12.20;90.10;;;;;;5052254;28;20353;-44
2023/01/01 05:41:22;;;;;;;9.00;4.32;;;12.20;90.00;;;;;;5037233;28;20296;-44
2023/01/01 05:43:50;;;;;;;9.18;5.10;;;12.30;89.60;;;;;;5029768;28;20025;-46
2023/01/01 05:46:23;;;;;;;15.23;5.28;;;12.30;89.60;;;;;;5029717;28;20018;-46
2023/01/01 05:48:51;;;;;;;13.77;5.30;;;12.20;89.50;;;;;;5012829;28;20045;-47
2023/01/01 05:51:24;;;;;;;10.03;5.17;;;12.30;89.40;;;;;;5025686;28;20335;-49
2023/01/01 05:53:50;;;;;;;10.05;4.50;;;12.30;89.40;;;;;;5028057;28;20033;-47
2023/01/01 05:56:17;;;;;;;9.82;4.28;;;12.30;89.50;;;;;;5012004;28;20592;-49
2023/01/01 05:58:45;;;;;;;9.50;4.60;;;12.30;89.50;;;;;;4994110;28;20033;-46
2023/01/01 06:01:15;;;;;;;13.90;6.30;;;12.20;89.60;;;;;;5039872;28;20048;-46
2023/01/01 06:03:41;;;;;;;;;;;12.20;89.80;;;;;;5032171;28;20447;-45
2023/01/01 06:06:13;;;;;;;11.30;5.20;;;12.20;90.00;;;;;;5024879;28;20063;-49
2023/01/01 06:08:39;;;;;;;12.38;5.55;;;12.10;90.10;;;;;;5052936;28;20064;-49
2023/01/01 06:11:13;;;;;;;12.70;6.45;;;12.10;90.30;;;;;;5055940;28;20032;-45
2023/01/01 06:13:39;;;;;;;14.20;6.03;;;12.10;90.40;;;;;;5043152;28;20037;-47
2023/01/01 06:16:08;;;;;;;13.68;5.63;;;12.00;90.50;;;;;;5037443;28;20033;-47
2023/01/01 06:18:35;;;;;;;12.27;5.75;;;12.00;90.50;;;;;;5043917;28;20040;-47
2023/01/01 06:21:12;;;;;;;13.43;6.43;;;12.00;90.40;;;;;;5034653;28;20047;-46
2023/01/01 06:23:39;;;;;;;10.00;5.45;;;11.90;90.40;;;;;;5035696;28;20113;-46
2023/01/01 06:26:08;;;;;;;12.02;5.72;;;11.90;90.30;;;;;;5055164;28;20071;-44
2023/01/01 06:28:36;;;;;;;12.07;5.18;;;11.90;90.30;;;;;;5037720;28;20102;-46
2023/01/01 06:31:06;;;;;;;14.75;5.72;;;11.90;90.40;;;;;;5034401;28;20425;-44
2023/01/01 06:33:32;;;;;;;12.82;4.70;;;11.90;90.40;;;;;;5038380;28;20026;-48
2023/01/01 06:36:00;;;;;;;11.05;4.63;;;11.90;90.30;;;;;;5034474;28;20109;-48
2023/01/01 06:38:30;;;;;;;13.02;4.47;;;11.90;90.20;;;;;;5034342;28;20033;-46
2023/01/01 06:40:58;;;;;;;;;;;11.90;90.00;;;;;;5047039;28;20041;-47
2023/01/01 06:43:25;;;;;;;10.82;4.47;;;11.90;89.80;;;;;;5037506;28;20337;-45
2023/01/01 06:46:16;;;;;;;6.50;3.90;;;11.90;89.80;;;;;;5028693;28;20049;-47
2023/01/01 06:48:44;;;;;;;9.52;3.85;;;11.90;89.70;;;;;;5026091;28;20036;-45
2023/01/01 06:51:20;;;;;;;9.65;3.90;;;11.90;89.60;;;;;;5028333;28;20101;-47
2023/01/01 06:53:50;;;;;;;12.15;5.05;;;11.80;89.60;;;;;;5028634;28;20091;-47
2023/01/01 06:56:17;;;;;;;11.73;4.43;;;11.90;89.30;;;;;;5027912;28;20026;-47
2023/01/01 06:58:44;;;;;;;10.48;3.58;;;11.90;89.30;;;;;;5029801;28;20017;-49
2023/01/01 07:01:14;;;;;;;7.45;3.42;;;11.90;89.20;;;;;;5018629;28;20037;-49
2023/01/01 07:03:41;;;;;;;12.80;3.58;;;11.90;89.10;;;;;;5018246;28;20493;-49
2023/01/01 07:06:08;;;;;;;12.93;3.75;;;11.90;88.90;;;;;;5023761;28;20124;-48
2023/01/01 07:08:36;;;;;;;10.40;3.58;;;11.90;88.70;;;;;;5028779;28;20026;-50
2023/01/01 07:11:02;;;;;;;9.82;2.70;;;11.90;88.50;;;;;;5025862;28;20045;-45
2023/01/01 07:13:30;;;;;;;8.52;3.55;;;11.90;88.10;;;;;;5022623;28;20478;-46
2023/01/01 07:15:56;;;;;;;9.50;2.63;;;11.90;87.20;;;;;;5023548;28;20095;-47
2023/01/01 07:18:25;;;;;;;7.38;2.58;;;12.00;86.40;;;;;;5022408;28;20030;-49
2023/01/01 07:20:58;;;;;;;7.90;2.45;;;12.00;86.00;;;;;;5026625;28;20041;-46
2023/01/01 07:23:28;;;;;;;8.60;3.00;;;12.10;85.50;;;;;;5025068;28;20092;-47
2023/01/01 07:25:56;;;;;;;6.22;2.15;;;12.00;85.20;;;;;;5023956;28;20362;-47
2023/01/01 07:28:24;;;;;;;5.57;1.77;;;12.10;84.90;;;;;;5023619;28;20026;-46
2023/01/01 07:30:53;;;;;;;12.55;2.47;;;12.00;84.80;;;;;;5006595;28;20057;-47
2023/01/01 07:33:21;;;;;;;7.90;1.73;;;12.00;85.10;;;;;;5027482;28;20099;-46
2023/01/01 07:35:50;;;;;;;8.95;2.67;;;12.00;84.90;;;;;;5024354;28;20034;-47
2023/01/01 07:38:17;;;;;;;5.82;2.00;;;11.90;85.00;;;;;;5023666;28;20040;-45
2023/01/01 07:40:44;;;;;;;9.95;2.22;;;11.90;84.90;;;;;;5027576;28;20043;-49
2023/01/01 07:43:11;;;;;;;12.15;2.72;;;11.90;84.70;;;;;;5028513;28;20449;-46
2023/01/01 07:45:40;;;;;;;6.30;1.92;;;12.00;83.50;;;;;;5032361;28;20025;-46
2023/01/01 07:48:14;;;;;;;6.07;1.83;;;12.00;83.30;;;;;;5035730;28;20025;-48
2023/01/01 07:50:41;;;;;;;7.32;1.90;;;12.00;83.20;;;;;;5027959;28;20375;-48
2023/01/01 07:53:08;;;;;;;7.05;2.25;;;12.00;82.90;;;;;;5013993;28;20133;-48
2023/01/01 07:55:35;;;;;;;8.57;2.03;;;12.00;82.70;;;;;;5036124;28;20057;-49
2023/01/01 07:58:03;;;;;;;11.65;2.08;;;12.00;82.00;;;;;;5021522;28;20033;-48
2023/01/01 08:00:30;;;;;;;6.50;1.55;;;12.00;81.90;;;;;;5017821;28;20153;-47
2023/01/01 08:02:57;;;;;;;8.55;1.92;;;12.00;81.80;;;;;;5025108;28;20059;-50
2023/01/01 08:05:23;;;;;;;8.77;2.30;;;11.90;81.50;;;;;;5030799;28;20037;-46
2023/01/01 08:07:52;;;;;;;7.32;1.67;;;11.90;81.50;;;;;;5013126;28;20112;-49
2023/01/01 08:10:20;;;;;;;4.90;1.27;;;11.90;81.00;;;;;;5031336;28;20030;-49
2023/01/01 08:12:47;;;;;;;10.40;3.45;;;11.90;81.10;;;;;;5029704;28;20447;-47
2023/01/01 08:15:15;;;;;;;6.05;1.85;;;11.90;81.10;;;;;;5030363;28;20037;-46
2023/01/01 08:17:41;;;;;;;9.90;1.63;;;11.90;81.20;;;;;;5024574;28;20095;-49
2023/01/01 08:20:10;;;;;;;12.18;2.25;;;11.90;80.80;;;;;;5028417;28;20108;-50
2023/01/01 08:22:39;;;;;;;9.85;2.13;;;11.90;81.00;;;;;;5026820;28;20026;-48
2023/01/01 08:25:09;;;;;;;4.78;1.40;;;11.80;81.20;;;;;;5024242;28;20101;-49
2023/01/01 08:27:37;;;;;;;8.48;2.63;;;11.70;81.10;;;;;;5020842;28;20026;-48
2023/01/01 08:30:04;;;;;;;11.77;2.00;;;11.60;81.20;;;;;;5019150;28;20034;-47
2023/01/01 08:32:31;;;;;;;8.65;1.95;;;11.70;80.90;;;;;;5017053;28;20025;-49
2023/01/01 08:34:58;;;;;;;9.52;2.85;;;11.60;81.20;;;;;;5039696;28;20037;-47
2023/01/01 08:37:24;;;;;;;8.20;1.67;;;11.60;81.30;;;;;;5036244;28;20045;-53
2023/01/01 08:39:51;;;;;;;12.20;2.33;;;11.50;81.60;;;;;;5017473;28;20030;-49
2023/01/01 08:42:18;;;;;;;11.65;2.13;;;11.50;81.60;;;;;;5037414;28;20107;-50
2023/01/01 08:44:44;;;;;;;10.93;2.03;;;11.50;81.50;;;;;;5052648;28;20029;-47
2023/01/01 08:47:23;;;;;;;8.02;1.77;;;11.50;81.20;;;;;;5032220;28;20079;-49
2023/01/01 08:49:53;;;;;;;6.47;2.70;;;11.60;81.40;;;;;;5022689;28;20029;-49
2023/01/01 08:52:20;;;;;;;;;;;11.60;81.20;;;;;;5027756;28;20037;-48
2023/01/01 08:54:49;;;;;;;13.00;2.47;;;11.70;81.00;;;;;;5019878;28;19913;-50
2023/01/01 08:57:16;;;;;;;5.37;1.70;;;11.70;81.10;;;;;;5024952;28;20037;-49
2023/01/01 08:59:46;;;;;;;13.98;2.72;;;11.70;81.00;;;;;;5023976;28;20466;-49
2023/01/01 09:02:13;;;;;;;10.82;2.17;;;11.70;81.10;;;;;;5021894;28;20022;-49
2023/01/01 09:04:39;;;;;;;12.77;3.33;;;11.70;81.00;;;;;;5021708;28;20364;-49
2023/01/01 09:07:07;;;;;;;8.27;2.40;;;11.70;81.10;;;;;;5022008;28;20041;-50
2023/01/01 09:09:38;;;;;;;15.57;3.50;;;11.70;81.00;;;;;;5021930;28;20116;-51
2023/01/01 09:12:07;;;;;;;11.20;2.17;;;11.70;81.00;;;;;;5020828;28;20276;-49
2023/01/01 09:14:34;;;;;;;14.90;3.10;;;11.60;81.20;;;;;;5022871;28;20026;-48
2023/01/01 09:17:01;;;;;;;11.60;2.60;;;11.70;81.30;;;;;;5017387;28;20061;-49
2023/01/01 09:19:28;;;;;;;14.85;3.30;;;11.70;81.10;;;;;;5014560;28;20040;-49
2023/01/01 09:21:54;;;;;;;17.70;3.13;;;11.70;81.00;;;;;;5028210;28;20125;-51
2023/01/01 09:24:21;;;;;;;10.57;2.72;;;11.70;81.00;;;;;;5018392;28;20088;-49
2023/01/01 09:26:49;;;;;;;10.77;3.63;;;11.70;80.80;;;;;;5019528;28;20029;-48
2023/01/01 09:29:20;;;;;;;11.98;2.97;;;11.70;81.00;;;;;;5018702;28;20022;-49
2023/01/01 09:31:48;;;;;;;15.57;3.05;;;11.70;80.90;;;;;;5023185;28;20025;-48
2023/01/01 09:34:16;;;;;;;15.52;2.97;;;11.70;81.00;;;;;;5033693;28;20043;-49
2023/01/01 09:36:43;;;;;;;13.02;2.50;;;11.70;81.10;;;;;;5030224;28;20044;-49
2023/01/01 09:39:14;;;;;;;16.73;2.97;;;11.70;81.00;;;;;;5021408;28;20113;-48
2023/01/01 09:41:58;;;;;;;9.40;2.70;;;11.80;80.70;;;;;;5043476;28;20471;-48
2023/01/01 09:44:48;;;;;;;15.85;3.30;;;11.80;80.90;;;;;;5030204;28;20075;-48
2023/01/01 09:47:41;;;;;;;16.38;3.17;;;11.80;81.20;;;;;;5026911;28;20022;-47
2023/01/01 09:50:19;;;;;;;10.05;3.03;;;11.80;81.10;;;;;;5027446;28;20069;-50
2023/01/01 09:52:53;;;;;;;13.52;3.28;;;11.80;81.60;;;;;;5029438;28;20030;-47
2023/01/01 09:55:27;;;;;;;10.25;3.67;;;11.80;81.50;;;;;;5021640;28;20454;-51
2023/01/01 09:57:55;;;;;;;20.38;3.75;;;11.80;81.70;;;;;;5022736;28;20049;-51
2023/01/01 10:00:22;;;;;;;14.90;3.10;;;11.80;81.60;;;;;;5032034;28;20416;-50
2023/01/01 10:03:26;;;;;;;18.10;4.50;;;11.80;81.30;;;;;;5055309;28;20021;-47
2023/01/01 10:06:13;;;;;;;9.95;3.00;;;11.90;81.30;;;;;;5018701;28;20045;-47
2023/01/01 10:09:04;;;;;;;17.60;3.20;;;11.90;81.40;;;;;;5015093;28;20026;-52
2023/01/01 10:11:49;;;;;;;17.70;3.53;;;11.90;81.60;;;;;;5020527;28;20037;-49
2023/01/01 10:14:26;;;;;;;14.73;3.13;;;11.90;81.30;;;;;;5054659;28;20125;-50
2023/01/01 10:16:55;;;;;;;19.23;3.83;;;11.90;81.40;;;;;;5055076;28;20051;-51
2023/01/01 10:19:36;;;;;;;15.07;4.32;;;11.90;81.50;;;;;;5045782;28;20025;-51
2023/01/01 10:22:14;;;;;;;15.35;4.05;;;12.00;81.30;;;;;;5042611;28;20392;-50
2023/01/01 10:25:00;;;;;;;19.23;4.65;;;12.00;81.00;;;;;;5047878;28;20025;-48
2023/01/01 10:27:45;;;;;;;14.07;3.33;;;12.10;81.20;;;;;;5040848;28;20025;-49
2023/01/01 10:30:18;;;;;;;16.48;4.13;;;12.10;81.20;;;;;;5027899;28;20409;-47
2023/01/01 10:32:54;;;;;;;18.80;4.50;;;12.10;81.00;;;;;;5035251;28;20033;-49
2023/01/01 10:35:29;;;;;;;18.17;4.05;;;12.10;81.10;;;;;;5031708;28;20037;-52
2023/01/01 10:38:00;;;;;;;19.48;4.20;;;12.10;81.00;;;;;;5034504;28;20072;-50
2023/01/01 10:40:29;;;;;;;12.13;2.75;;;12.10;81.10;;;;;;5034022;28;20033;-47
2023/01/01 10:42:58;;;;;;;15.00;4.18;;;12.20;81.00;;;;;;5029808;28;20096;-49
2023/01/01 10:45:45;;;;;;;13.10;3.30;;;12.20;80.50;;;;;;5034972;28;20025;-53
2023/01/01 10:48:12;;;;;;;12.93;3.40;;;12.30;80.50;;;;;;5014725;28;20030;-51
2023/01/01 10:51:03;;;;;;;15.63;3.78;;;12.30;80.60;;;;;;5027470;28;20418;-47
2023/01/01 10:53:51;;;;;;;11.65;2.67;;;12.30;80.10;;;;;;5033605;28;20026;-53
2023/01/01 10:56:22;;;;;;;17.10;3.65;;;12.20;80.40;;;;;;5033443;28;20021;-50
2023/01/01 10:58:59;;;;;;;12.65;2.83;;;12.20;80.90;;;;;;5042564;28;20033;-52
2023/01/01 11:01:43;;;;;;;14.52;4.45;;;12.10;80.80;;;;;;5054784;28;20055;-51
2023/01/01 11:04:12;;;;;;;10.93;3.35;;;12.00;80.80;;;;;;5037020;28;20627;-50
2023/01/01 11:06:41;;;;;;;14.50;3.58;;;11.90;81.10;;;;;;5031582;28;20044;-50
2023/01/01 11:09:35;;;;;;;14.10;5.20;;;11.90;81.60;;;;;;5049776;28;20021;-53
2023/01/01 11:12:16;;;;;;;11.35;3.33;;;11.90;81.90;;;;;;5048838;28;20068;-51
2023/01/01 11:14:54;;;;;;;23.35;4.10;;;11.80;81.90;;;;;;5028340;28;20087;-48
2023/01/01 11:17:25;;;;;;;10.77;3.22;;;11.80;82.20;;;;;;5032585;28;20483;-49
2023/01/01 11:19:56;;;;;;;12.95;3.58;;;11.80;82.20;;;;;;5024656;28;20047;-50
2023/01/01 11:22:40;;;;;;;12.38;3.15;;;11.70;82.40;;;;;;5022374;28;20087;-47
2023/01/01 11:25:36;;;;;;;13.80;3.20;;;11.80;82.40;;;;;;5036375;28;20033;-51
2023/01/01 11:28:23;;;;;;;15.48;2.78;;;11.70;82.20;;;;;;5033828;28;20386;-52
2023/01/01 11:31:19;;;;;;;15.43;3.58;;;11.60;82.40;;;;;;5040558;28;20033;-49
2023/01/01 11:33:51;;;;;;;16.15;3.58;;;11.80;82.10;;;;;;5047999;28;20124;-52
2023/01/01 11:36:28;;;;;;;19.85;4.05;;;11.80;81.80;;;;;;5024984;28;20375;-54
2023/01/01 11:39:23;;;;;;;11.88;2.83;;;11.90;81.50;;;;;;5027861;28;20029;-50
2023/01/01 11:41:53;;;;;;;18.58;4.25;;;11.80;81.60;;;;;;5025222;28;20541;-50
2023/01/01 11:44:37;;;;;;;15.77;3.67;;;11.80;81.70;;;;;;5027247;28;20022;-51
2023/01/01 11:47:05;;;;;;;14.23;3.30;;;11.90;81.90;;;;;;5032488;28;20022;-49
2023/01/01 11:49:33;;;;;;;16.77;3.50;;;11.90;81.80;;;;;;5035569;28;20029;-49
2023/01/01 11:51:59;;;;;;;10.68;2.83;;;11.90;81.10;;;;;;5013196;28;20018;-50
2023/01/01 11:54:34;;;;;;;17.77;4.20;;;11.90;81.40;;;;;;5040286;28;20500;-51
2023/01/01 11:57:17;;;;;;;11.32;3.13;;;11.90;81.60;;;;;;5020267;28;20013;-53
2023/01/01 12:00:03;;;;;;;14.95;2.58;;;11.90;81.50;;;;;;5021835;28;20038;-51
2023/01/01 12:02:52;;;;;;;13.45;3.50;;;11.90;81.60;;;;;;5025761;28;20025;-51
2023/01/01 12:05:45;;;;;;;18.30;4.13;;;11.90;81.90;;;;;;5021768;28;20390;-52
2023/01/01 12:08:36;;;;;;;14.43;3.30;;;11.80;82.00;;;;;;5035712;28;20034;-48
2023/01/01 12:11:20;;;;;;;11.48;2.65;;;11.80;82.30;;;;;;5032767;28;20033;-53
2023/01/01 12:14:40;;;;;;;13.50;3.67;;;11.80;82.70;;;;;;5020591;28;20026;-48
2023/01/01 12:17:22;;;;;;;17.52;3.20;;;11.70;82.80;;;;;;5024326;28;20979;-50
2023/01/01 12:20:02;;;;;;;15.63;4.85;;;11.70;83.00;;;;;;5023896;28;20033;-52
2023/01/01 12:22:29;;;;;;;14.35;3.85;;;11.80;82.90;;;;;;5033182;28;20447;-53
2023/01/01 12:24:56;;;;;;;11.65;3.28;;;11.80;82.70;;;;;;5021744;28;20030;-47
2023/01/01 12:27:59;;;;;;;17.67;3.72;;;11.80;82.90;;;;;;5022331;28;20477;-48
2023/01/01 12:30:31;;;;;;;7.57;2.40;;;11.90;82.80;;;;;;5028055;28;20037;-48
2023/01/01 12:33:25;;;;;;;12.40;2.45;;;12.10;82.60;;;;;;5026156;28;20025;-48
2023/01/01 12:35:59;;;;;;;15.43;2.58;;;12.20;82.00;;;;;;5020973;28;20120;-52
2023/01/01 12:38:46;;;;;;;13.68;2.67;;;12.20;81.50;;;;;;5031806;28;20029;-51
2023/01/01 12:41:43;;;;;;;13.48;2.47;;;12.20;80.80;;;;;;5023667;28;20033;-48
2023/01/01 12:44:32;;;;;;;15.13;2.72;;;12.20;80.80;;;;;;5030687;28;20022;-49
2023/01/01 12:47:10;;;;;;;8.90;2.20;;;12.20;80.70;;;;;;5022952;28;20025;-48
2023/01/01 12:49:51;;;;;;;11.15;3.05;;;12.30;80.80;;;;;;5017524;28;20248;-48
2023/01/01 12:52:33;;;;;;;11.65;2.70;;;12.40;80.10;;;;;;5023033;28;20037;-49
2023/01/01 12:55:36;;;;;;;8.73;2.63;;;12.30;80.30;;;;;;5024384;28;20034;-47
2023/01/01 12:58:25;;;;;;;16.02;3.10;;;12.30;80.00;;;;;;5034257;28;20038;-50
2023/01/01 13:01:13;;;;;;;15.05;3.80;;;12.20;80.50;;;;;;5022846;28;20061;-50
2023/01/01 13:04:09;;;;;;;13.85;2.72;;;12.20;79.60;;;;;;5021498;28;20017;-47
2023/01/01 13:07:06;;;;;;;11.55;3.03;;;12.20;79.60;;;;;;5019678;28;21387;-50
2023/01/01 13:09:40;;;;;;;13.65;2.78;;;12.20;79.40;;;;;;5018319;28;20048;-47
2023/01/01 13:12:27;;;;;;;14.70;3.58;;;12.20;79.20;;;;;;5026749;28;20447;-48
2023/01/01 13:14:54;;;;;;;15.93;3.33;;;12.20;79.50;;;;;;5022058;28;20103;-48
2023/01/01 13:17:28;;;;;;;16.08;3.45;;;12.20;79.10;;;;;;5022358;28;20075;-48
2023/01/01 13:20:23;;;;;;;10.88;2.25;;;12.20;79.20;;;;;;5031815;28;20029;-52